createdAt,value
2023-02-23T00:01:54.241Z,13.90
2023-02-23T00:04:23.648Z,12.67
2023-02-23T00:06:54.811Z,12.40
2023-02-23T00:09:24.985Z,19.23
2023-02-23T00:11:57.467Z,15.67
2023-02-23T00:14:29.151Z,12.50
2023-02-23T00:16:57.159Z,12.13
2023-02-23T00:19:25.214Z,13.17
2023-02-23T00:21:53.937Z,14.53
2023-02-23T00:24:23.299Z,9.77
2023-02-23T00:26:51.663Z,13.17
2023-02-23T00:29:22.178Z,13.47
2023-02-23T00:31:50.974Z,16.00
2023-02-23T00:34:23.940Z,12.47
2023-02-23T00:36:55.577Z,10.13
2023-02-23T00:39:29.078Z,15.17
2023-02-23T00:42:02.476Z,12.20
2023-02-23T00:44:30.237Z,10.70
2023-02-23T00:46:57.529Z,14.90
2023-02-23T00:49:24.919Z,16.10
2023-02-23T00:51:52.408Z,13.23
2023-02-23T00:54:21.189Z,13.70
2023-02-23T00:56:49.068Z,11.43
2023-02-23T00:59:16.919Z,13.00
2023-02-23T01:01:44.372Z,12.50
2023-02-23T01:04:12.723Z,16.53
2023-02-23T01:06:41.659Z,14.37
2023-02-23T01:09:16.149Z,19.50
2023-02-23T01:11:46.997Z,15.67
2023-02-23T01:14:14.458Z,14.77
2023-02-23T01:16:41.665Z,13.40
2023-02-23T01:19:10.333Z,15.53
2023-02-23T01:21:42.745Z,17.60
2023-02-23T01:24:29.386Z,15.20
2023-02-23T01:27:14.616Z,13.90
2023-02-23T01:30:00.003Z,12.97
2023-02-23T01:32:27.461Z,14.17
2023-02-23T01:34:54.679Z,12.63
2023-02-23T01:37:22.005Z,15.47
2023-02-23T01:39:49.243Z,18.07
2023-02-23T01:42:16.433Z,13.13
2023-02-23T01:44:43.635Z,17.03
2023-02-23T01:47:14.265Z,16.40
2023-02-23T01:49:42.083Z,17.40
2023-02-23T01:52:13.048Z,17.23
2023-02-23T01:54:50.567Z,18.37
2023-02-23T01:57:22.176Z,19.27
2023-02-23T01:59:51.192Z,18.87
2023-02-23T02:02:22.319Z,19.20
2023-02-23T02:04:52.382Z,21.87
2023-02-23T02:07:25.955Z,20.90
2023-02-23T02:10:13.277Z,19.60
2023-02-23T02:12:45.873Z,19.50
2023-02-23T02:15:20.006Z,18.00
2023-02-23T02:18:24.527Z,24.27
2023-02-23T02:21:07.317Z,15.63
2023-02-23T02:24:00.897Z,19.10
2023-02-23T02:26:46.664Z,18.17
2023-02-23T02:29:50.546Z,20.90
2023-02-23T02:32:55.498Z,21.33
2023-02-23T02:35:41.263Z,17.30
2023-02-23T02:38:33.537Z,22.63
2023-02-23T02:41:31.288Z,18.90
2023-02-23T02:44:07.258Z,18.60
2023-02-23T02:46:41.611Z,16.17
2023-02-23T02:49:27.830Z,14.97
2023-02-23T02:52:11.320Z,17.40
2023-02-23T02:54:53.485Z,19.30
2023-02-23T02:57:25.294Z,14.63
2023-02-23T03:00:10.903Z,20.30
2023-02-23T03:02:58.715Z,18.47
2023-02-23T03:05:53.317Z,15.73
2023-02-23T03:08:54.380Z,20.93
2023-02-23T03:11:43.671Z,19.27
2023-02-23T03:14:56.958Z,18.57
2023-02-23T03:18:07.472Z,16.53
2023-02-23T03:20:53.301Z,19.27
2023-02-23T03:23:45.814Z,21.73
2023-02-23T03:26:58.511Z,21.33
2023-02-23T03:29:51.930Z,18.33
2023-02-23T03:32:50.627Z,17.70
2023-02-23T03:35:57.947Z,21.73
2023-02-23T03:38:46.250Z,18.27
2023-02-23T03:41:33.938Z,18.00
2023-02-23T03:44:34.044Z,18.90
2023-02-23T03:47:22.070Z,16.40
2023-02-23T03:50:09.084Z,23.33
2023-02-23T03:53:10.156Z,19.03
2023-02-23T03:55:59.554Z,16.27
2023-02-23T03:58:54.994Z,19.70
2023-02-23T04:01:42.342Z,17.53
2023-02-23T04:04:47.483Z,17.10
2023-02-23T04:07:55.419Z,17.40
2023-02-23T04:11:09.661Z,16.30
2023-02-23T04:13:39.211Z,20.27
2023-02-23T04:16:10.355Z,20.17
2023-02-23T04:18:39.690Z,19.90
2023-02-23T04:21:07.902Z,19.40
2023-02-23T04:23:37.247Z,21.20
2023-02-23T04:26:05.277Z,21.63
2023-02-23T04:28:32.525Z,19.87
2023-02-23T04:31:00.765Z,20.50
2023-02-23T04:33:28.120Z,22.27
2023-02-23T04:35:55.580Z,22.77
2023-02-23T04:38:23.445Z,17.03
2023-02-23T04:40:50.834Z,23.47
2023-02-23T04:43:18.104Z,18.13
2023-02-23T04:45:45.412Z,19.93
2023-02-23T04:48:12.632Z,17.50
2023-02-23T04:50:39.824Z,17.97
2023-02-23T04:53:07.303Z,21.47
2023-02-23T04:55:34.592Z,17.00
2023-02-23T04:58:03.047Z,18.80
2023-02-23T05:00:30.405Z,24.30
2023-02-23T05:02:58.249Z,20.73
2023-02-23T05:05:25.574Z,23.37
2023-02-23T05:07:54.617Z,22.37
2023-02-23T05:10:21.851Z,20.97
2023-02-23T05:12:49.053Z,21.60
2023-02-23T05:15:16.658Z,23.20
2023-02-23T05:17:44.026Z,23.83
2023-02-23T05:20:12.619Z,25.27
2023-02-23T05:22:40.544Z,19.03
2023-02-23T05:25:10.420Z,19.47
2023-02-23T05:27:38.003Z,18.17
2023-02-23T05:30:07.944Z,19.80
2023-02-23T05:32:35.669Z,20.20
2023-02-23T05:35:03.614Z,24.50
2023-02-23T05:37:30.891Z,28.83
2023-02-23T05:39:58.154Z,20.93
2023-02-23T05:42:25.495Z,22.70
2023-02-23T05:44:52.688Z,24.83
2023-02-23T05:47:19.899Z,22.30
2023-02-23T05:49:47.285Z,20.57
2023-02-23T05:52:14.482Z,27.90
2023-02-23T05:54:41.867Z,19.13
2023-02-23T05:57:09.052Z,21.57
2023-02-23T05:59:36.266Z,22.30
2023-02-23T06:02:06.124Z,25.03
2023-02-23T06:04:33.902Z,27.30
2023-02-23T06:07:01.350Z,30.40
2023-02-23T06:09:28.581Z,25.03
2023-02-23T06:11:55.872Z,25.33
2023-02-23T06:14:23.126Z,21.10
2023-02-23T06:16:50.422Z,26.17
2023-02-23T06:19:17.698Z,25.83
2023-02-23T06:21:45.159Z,25.40
2023-02-23T06:24:12.540Z,25.60
2023-02-23T06:26:40.059Z,24.40
2023-02-23T06:29:07.311Z,26.20
2023-02-23T06:31:34.635Z,20.90
2023-02-23T06:34:01.864Z,24.00
2023-02-23T06:36:29.146Z,25.00
2023-02-23T06:38:59.847Z,24.20
2023-02-23T06:41:27.326Z,22.63
2023-02-23T06:43:54.548Z,21.90
2023-02-23T06:46:21.978Z,21.87
2023-02-23T06:48:49.320Z,22.20
2023-02-23T06:51:16.820Z,24.20
2023-02-23T06:53:44.199Z,24.33
2023-02-23T06:56:14.075Z,25.07
2023-02-23T06:58:43.326Z,26.30
2023-02-23T07:01:12.626Z,35.47
2023-02-23T07:03:40.069Z,30.07
2023-02-23T07:06:08.077Z,34.87
2023-02-23T07:08:35.930Z,25.80
2023-02-23T07:11:11.854Z,28.03
2023-02-23T07:13:39.996Z,35.37
2023-02-23T07:16:08.287Z,29.63
2023-02-23T07:18:35.651Z,28.20
2023-02-23T07:21:02.956Z,24.83
2023-02-23T07:23:30.140Z,27.47
2023-02-23T07:25:58.160Z,26.47
2023-02-23T07:28:27.439Z,23.67
2023-02-23T07:30:58.934Z,34.63
2023-02-23T07:33:26.338Z,28.43
2023-02-23T07:35:53.605Z,27.17
2023-02-23T07:38:20.885Z,28.60
2023-02-23T07:40:50.985Z,30.70
2023-02-23T07:43:18.356Z,35.27
2023-02-23T07:45:46.633Z,30.67
2023-02-23T07:48:14.301Z,29.67
2023-02-23T07:50:42.523Z,24.23
2023-02-23T07:53:10.534Z,30.07
2023-02-23T07:55:38.577Z,25.30
2023-02-23T07:58:06.399Z,24.00
2023-02-23T08:00:34.931Z,24.70
2023-02-23T08:03:02.340Z,24.87
2023-02-23T08:05:29.680Z,27.23
2023-02-23T08:08:01.446Z,28.20
2023-02-23T08:10:28.716Z,26.77
2023-02-23T08:12:57.623Z,26.60
2023-02-23T08:15:25.570Z,25.10
2023-02-23T08:17:52.897Z,25.40
2023-02-23T08:20:20.229Z,26.30
2023-02-23T08:22:50.014Z,23.57
2023-02-23T08:25:18.421Z,27.87
2023-02-23T08:27:46.844Z,22.80
2023-02-23T08:30:15.563Z,24.23
2023-02-23T08:32:43.076Z,24.47
2023-02-23T08:35:11.048Z,24.17
2023-02-23T08:37:38.274Z,24.93
2023-02-23T08:40:06.128Z,28.50
2023-02-23T08:42:33.680Z,28.27
2023-02-23T08:45:01.615Z,38.43
2023-02-23T08:47:30.060Z,33.00
2023-02-23T08:49:57.298Z,35.33
2023-02-23T08:52:25.452Z,22.03
2023-02-23T08:54:52.929Z,21.33
2023-02-23T08:57:20.209Z,22.53
2023-02-23T08:59:47.633Z,25.23
2023-02-23T09:02:15.655Z,23.60
2023-02-23T09:04:43.681Z,19.27
2023-02-23T09:07:15.793Z,18.93
2023-02-23T09:09:43.141Z,24.00
2023-02-23T09:12:10.382Z,18.77
2023-02-23T09:14:37.736Z,24.80
2023-02-23T09:17:05.223Z,28.30
2023-02-23T09:19:32.437Z,22.57
2023-02-23T09:21:59.675Z,24.10
2023-02-23T09:24:26.950Z,20.33
2023-02-23T09:26:54.206Z,27.50
2023-02-23T09:29:23.220Z,25.27
2023-02-23T09:31:55.195Z,22.67
2023-02-23T09:34:22.649Z,20.67
2023-02-23T09:36:51.383Z,30.00
2023-02-23T09:39:24.075Z,22.00
2023-02-23T09:42:09.084Z,23.33
2023-02-23T09:45:00.516Z,22.97
2023-02-23T09:48:00.332Z,24.30
2023-02-23T09:50:30.196Z,22.03
2023-02-23T09:53:07.528Z,24.53
2023-02-23T09:55:35.465Z,21.53
2023-02-23T09:58:10.907Z,26.90
2023-02-23T10:00:43.091Z,18.90
2023-02-23T10:03:14.378Z,20.10
2023-02-23T10:05:47.941Z,22.07
2023-02-23T10:08:20.363Z,26.63
2023-02-23T10:11:10.506Z,24.60
2023-02-23T10:13:54.044Z,22.90
2023-02-23T10:16:33.232Z,19.60
2023-02-23T10:19:29.358Z,24.73
2023-02-23T10:22:07.547Z,20.63
2023-02-23T10:24:42.264Z,22.33
2023-02-23T10:27:25.306Z,22.33
2023-02-23T10:30:00.652Z,25.27
2023-02-23T10:32:49.111Z,24.97
2023-02-23T10:35:21.128Z,22.53
2023-02-23T10:37:49.597Z,24.30
2023-02-23T10:40:23.463Z,27.23
2023-02-23T10:43:01.639Z,21.07
2023-02-23T10:45:30.988Z,25.33
2023-02-23T10:48:06.175Z,21.90
2023-02-23T10:50:36.212Z,22.67
2023-02-23T10:53:32.807Z,21.87
2023-02-23T10:56:15.158Z,21.77
2023-02-23T10:58:46.524Z,23.80
2023-02-23T11:02:00.416Z,22.97
2023-02-23T11:04:31.179Z,27.10
2023-02-23T11:07:15.274Z,20.73
2023-02-23T11:09:47.415Z,21.53
2023-02-23T11:12:23.004Z,27.17
2023-02-23T11:14:51.992Z,21.97
2023-02-23T11:17:36.407Z,22.30
2023-02-23T11:20:33.415Z,24.33
2023-02-23T11:23:06.538Z,23.03
2023-02-23T11:25:43.389Z,22.50
2023-02-23T11:28:25.243Z,31.53
2023-02-23T11:30:52.531Z,20.70
2023-02-23T11:33:39.778Z,22.70
2023-02-23T11:36:29.837Z,22.93
2023-02-23T11:39:08.153Z,18.50
2023-02-23T11:41:37.470Z,19.37
2023-02-23T11:44:06.242Z,20.87
2023-02-23T11:46:37.876Z,22.17
2023-02-23T11:49:14.857Z,21.67
2023-02-23T11:51:49.229Z,23.10
2023-02-23T11:54:27.462Z,23.70
2023-02-23T11:56:58.221Z,21.50
2023-02-23T11:59:47.796Z,20.17
2023-02-23T12:02:23.235Z,25.13
2023-02-23T12:04:54.672Z,26.17
2023-02-23T12:07:44.003Z,22.13
2023-02-23T12:10:26.234Z,25.20
2023-02-23T12:13:24.247Z,28.90
2023-02-23T12:15:58.724Z,26.13
2023-02-23T12:18:28.857Z,23.40
2023-02-23T12:21:01.090Z,19.60
2023-02-23T12:23:34.871Z,25.93
2023-02-23T12:26:11.895Z,27.63
2023-02-23T12:29:23.702Z,21.03
2023-02-23T12:32:19.864Z,21.83
2023-02-23T12:34:50.387Z,22.63
2023-02-23T12:37:28.272Z,22.40
2023-02-23T12:40:12.741Z,27.30
2023-02-23T12:42:54.540Z,25.90
2023-02-23T12:45:55.839Z,20.63
2023-02-23T12:48:35.729Z,18.10
2023-02-23T12:51:19.197Z,20.53
2023-02-23T12:53:46.572Z,21.30
2023-02-23T12:56:56.256Z,21.90
2023-02-23T12:59:37.994Z,24.00
2023-02-23T13:02:19.167Z,20.57
2023-02-23T13:05:15.587Z,24.30
2023-02-23T13:08:12.862Z,20.27
2023-02-23T13:11:01.392Z,21.57
2023-02-23T13:13:34.461Z,21.60
2023-02-23T13:16:09.236Z,22.07
2023-02-23T13:19:03.321Z,21.77
2023-02-23T13:21:44.837Z,21.13
2023-02-23T13:24:29.288Z,25.77
2023-02-23T13:27:16.285Z,25.17
2023-02-23T13:29:55.249Z,27.57
2023-02-23T13:32:24.573Z,24.63
2023-02-23T13:34:57.774Z,24.47
2023-02-23T13:37:32.288Z,22.73
2023-02-23T13:40:08.679Z,23.07
2023-02-23T13:42:50.950Z,25.50
2023-02-23T13:45:22.795Z,31.30
2023-02-23T13:47:54.185Z,25.80
2023-02-23T13:50:39.500Z,22.67
2023-02-23T13:53:25.159Z,24.67
2023-02-23T13:55:54.234Z,35.97
2023-02-23T13:58:32.269Z,25.03
2023-02-23T14:01:17.194Z,27.90
2023-02-23T14:03:54.550Z,26.80
2023-02-23T14:06:25.448Z,26.27
2023-02-23T14:09:22.099Z,24.57
2023-02-23T14:11:53.777Z,29.03
2023-02-23T14:14:33.418Z,34.73
2023-02-23T14:17:12.064Z,28.73
2023-02-23T14:19:44.877Z,23.70
2023-02-23T14:22:22.090Z,23.47
2023-02-23T14:25:28.424Z,27.27
2023-02-23T14:28:22.102Z,28.50
2023-02-23T14:30:59.634Z,23.77
2023-02-23T14:33:52.867Z,27.73
2023-02-23T14:36:28.905Z,26.73
2023-02-23T14:39:27.488Z,27.47
2023-02-23T14:42:00.200Z,21.53
2023-02-23T14:44:31.473Z,22.70
2023-02-23T14:47:13.996Z,24.77
2023-02-23T14:49:50.135Z,23.00
2023-02-23T14:52:27.208Z,28.17
2023-02-23T14:55:12.568Z,28.63
2023-02-23T14:57:43.572Z,24.67
2023-02-23T15:00:32.671Z,23.60
2023-02-23T15:03:13.779Z,27.67
2023-02-23T15:06:01.124Z,24.77
2023-02-23T15:08:31.029Z,28.23
2023-02-23T15:11:13.473Z,33.43
2023-02-23T15:13:47.303Z,26.87
2023-02-23T15:16:35.035Z,27.67
2023-02-23T15:19:04.843Z,26.77
2023-02-23T15:21:33.820Z,29.73
2023-02-23T15:24:13.167Z,28.07
2023-02-23T15:26:43.723Z,25.70
2023-02-23T15:29:11.034Z,27.03
2023-02-23T15:31:40.951Z,24.33
2023-02-23T15:34:11.708Z,39.63
2023-02-23T15:36:41.312Z,22.47
2023-02-23T15:39:14.811Z,25.07
2023-02-23T15:41:44.613Z,26.73
2023-02-23T15:44:18.969Z,24.93
2023-02-23T15:46:52.983Z,25.40
2023-02-23T15:49:22.032Z,22.17
2023-02-23T15:52:02.335Z,27.13
2023-02-23T15:54:52.287Z,30.20
2023-02-23T15:57:31.966Z,28.73
2023-02-23T16:00:02.027Z,30.47
2023-02-23T16:02:30.292Z,25.20
2023-02-23T16:05:10.950Z,25.50
2023-02-23T16:07:43.478Z,22.77
2023-02-23T16:10:24.127Z,30.70
2023-02-23T16:12:54.006Z,27.40
2023-02-23T16:15:28.058Z,24.97
2023-02-23T16:18:05.016Z,25.30
2023-02-23T16:20:41.610Z,25.90
2023-02-23T16:23:33.201Z,28.63
2023-02-23T16:26:10.712Z,24.67
2023-02-23T16:28:43.770Z,27.97
2023-02-23T16:31:16.805Z,26.27
2023-02-23T16:33:51.543Z,32.93
2023-02-23T16:36:22.559Z,25.50
2023-02-23T16:39:06.673Z,31.20
2023-02-23T16:41:35.246Z,24.50
2023-02-23T16:44:05.801Z,26.17
2023-02-23T16:46:54.435Z,26.10
2023-02-23T16:49:23.546Z,28.63
2023-02-23T16:51:52.747Z,24.20
2023-02-23T16:54:20.190Z,28.23
2023-02-23T16:56:48.266Z,21.43
2023-02-23T16:59:18.267Z,29.17
2023-02-23T17:01:46.684Z,35.70
2023-02-23T17:04:15.548Z,31.27
2023-02-23T17:06:43.850Z,33.50
2023-02-23T17:09:15.139Z,36.90
2023-02-23T17:11:47.259Z,30.20
2023-02-23T17:14:24.617Z,29.60
2023-02-23T17:17:18.751Z,28.97
2023-02-23T17:19:46.822Z,26.03
2023-02-23T17:22:14.986Z,32.53
2023-02-23T17:24:43.231Z,27.93
2023-02-23T17:27:11.585Z,23.23
2023-02-23T17:29:57.570Z,33.40
2023-02-23T17:32:24.937Z,23.20
2023-02-23T17:34:53.498Z,26.67
2023-02-23T17:37:20.720Z,25.03
2023-02-23T17:39:51.259Z,25.73
2023-02-23T17:42:18.967Z,28.00
2023-02-23T17:44:46.167Z,30.37
2023-02-23T17:47:13.428Z,26.60
2023-02-23T17:49:40.776Z,28.07
2023-02-23T17:52:08.043Z,24.33
2023-02-23T17:54:35.430Z,25.90
2023-02-23T17:57:03.349Z,33.20
2023-02-23T17:59:30.731Z,32.43
2023-02-23T18:01:58.148Z,27.13
2023-02-23T18:04:25.602Z,28.57
2023-02-23T18:06:52.810Z,23.77
2023-02-23T18:09:20.265Z,31.90
2023-02-23T18:11:47.905Z,24.10
2023-02-23T18:14:16.747Z,27.87
2023-02-23T18:16:44.026Z,19.23
2023-02-23T18:19:11.352Z,22.10
2023-02-23T18:21:40.907Z,25.47
2023-02-23T18:24:08.366Z,24.57
2023-02-23T18:26:35.955Z,25.37
2023-02-23T18:29:04.946Z,26.40
2023-02-23T18:31:33.255Z,25.63
2023-02-23T18:34:02.185Z,28.73
2023-02-23T18:36:31.946Z,23.80
2023-02-23T18:39:00.977Z,21.90
2023-02-23T18:41:31.027Z,26.73
2023-02-23T18:44:02.873Z,23.57
2023-02-23T18:46:31.130Z,26.47
2023-02-23T18:48:59.200Z,23.23
2023-02-23T18:51:26.922Z,24.93
2023-02-23T18:53:54.849Z,27.93
2023-02-23T18:56:25.510Z,26.20
2023-02-23T18:58:55.543Z,24.63
2023-02-23T19:01:33.416Z,21.50
2023-02-23T19:04:02.575Z,25.30
2023-02-23T19:06:30.874Z,24.40
2023-02-23T19:09:00.292Z,26.87
2023-02-23T19:11:30.532Z,22.53
2023-02-23T19:14:00.596Z,25.23
2023-02-23T19:16:33.096Z,27.57
2023-02-23T19:19:01.359Z,28.33
2023-02-23T19:21:29.195Z,23.97
2023-02-23T19:23:57.866Z,29.77
2023-02-23T19:26:26.226Z,23.77
2023-02-23T19:28:53.950Z,27.67
2023-02-23T19:31:24.169Z,22.67
2023-02-23T19:33:53.864Z,26.03
2023-02-23T19:36:23.523Z,28.33
2023-02-23T19:38:51.107Z,25.63
2023-02-23T19:41:20.373Z,32.20
2023-02-23T19:43:48.510Z,33.43
2023-02-23T19:46:17.535Z,32.57
2023-02-23T19:48:48.767Z,36.27
2023-02-23T19:51:16.041Z,34.80
2023-02-23T19:53:43.496Z,37.93
2023-02-23T19:56:13.565Z,31.13
2023-02-23T19:58:49.699Z,40.17
2023-02-23T20:01:20.880Z,35.83
2023-02-23T20:03:55.640Z,34.17
2023-02-23T20:06:27.583Z,30.10
2023-02-23T20:08:55.456Z,29.00
2023-02-23T20:11:23.771Z,42.20
2023-02-23T20:13:53.087Z,28.20
2023-02-23T20:16:21.378Z,31.50
2023-02-23T20:18:48.911Z,32.63
2023-02-23T20:21:23.557Z,32.40
2023-02-23T20:23:51.995Z,27.20
2023-02-23T20:26:23.805Z,27.03
2023-02-23T20:28:51.294Z,29.33
2023-02-23T20:31:22.966Z,28.27
2023-02-23T20:33:50.720Z,29.50
2023-02-23T20:36:19.619Z,29.10
2023-02-23T20:38:46.815Z,26.03
2023-02-23T20:41:14.317Z,28.60
2023-02-23T20:43:43.769Z,27.10
2023-02-23T20:46:13.762Z,27.90
2023-02-23T20:48:44.397Z,37.03
2023-02-23T20:51:13.075Z,30.53
2023-02-23T20:53:42.316Z,27.93
2023-02-23T20:56:10.291Z,31.10
2023-02-23T20:58:39.889Z,30.43
2023-02-23T21:01:16.897Z,28.30
2023-02-23T21:03:44.280Z,28.20
2023-02-23T21:06:11.723Z,27.17
2023-02-23T21:08:39.892Z,31.87
2023-02-23T21:11:08.989Z,39.07
2023-02-23T21:13:36.752Z,35.70
2023-02-23T21:16:04.134Z,34.40
2023-02-23T21:18:32.725Z,29.63
2023-02-23T21:21:09.778Z,28.60
2023-02-23T21:23:44.994Z,24.80
2023-02-23T21:26:15.914Z,27.13
2023-02-23T21:28:47.027Z,25.47
2023-02-23T21:31:15.083Z,23.83
2023-02-23T21:33:44.023Z,22.70
2023-02-23T21:36:12.773Z,25.90
2023-02-23T21:38:42.431Z,22.43
2023-02-23T21:41:11.275Z,25.60
2023-02-23T21:43:40.592Z,23.53
2023-02-23T21:46:14.559Z,24.10
2023-02-23T21:48:43.114Z,21.60
2023-02-23T21:51:12.544Z,21.57
2023-02-23T21:53:41.219Z,28.10
2023-02-23T21:56:14.139Z,21.80
2023-02-23T21:58:49.759Z,23.40
2023-02-23T22:01:20.442Z,24.60
2023-02-23T22:03:48.397Z,23.40
2023-02-23T22:06:19.248Z,22.50
2023-02-23T22:08:51.534Z,26.40
2023-02-23T22:11:22.086Z,39.63
2023-02-23T22:13:54.449Z,31.20
2023-02-23T22:16:22.125Z,30.80
2023-02-23T22:19:08.228Z,22.83
2023-02-23T22:21:45.022Z,28.93
2023-02-23T22:24:13.895Z,32.40
2023-02-23T22:26:50.597Z,33.30
2023-02-23T22:29:18.043Z,30.53
2023-02-23T22:31:45.489Z,24.60
2023-02-23T22:34:12.822Z,26.77
2023-02-23T22:36:40.182Z,29.73
2023-02-23T22:39:10.011Z,24.07
2023-02-23T22:41:43.454Z,26.50
2023-02-23T22:44:16.843Z,22.00
2023-02-23T22:46:48.107Z,20.07
2023-02-23T22:49:15.958Z,21.83
2023-02-23T22:51:43.980Z,20.77
2023-02-23T22:54:13.371Z,21.77
2023-02-23T22:56:42.343Z,22.37
2023-02-23T22:59:11.161Z,20.53
2023-02-23T23:01:44.576Z,21.63
2023-02-23T23:04:12.445Z,24.83
2023-02-23T23:06:41.481Z,26.30
2023-02-23T23:09:14.951Z,22.10
2023-02-23T23:11:42.508Z,23.80
2023-02-23T23:14:11.273Z,23.40
2023-02-23T23:16:48.166Z,24.43
2023-02-23T23:19:19.340Z,22.27
2023-02-23T23:21:46.757Z,22.33
2023-02-23T23:24:15.250Z,19.80
2023-02-23T23:26:44.391Z,23.00
2023-02-23T23:29:14.834Z,21.00
2023-02-23T23:31:46.577Z,18.90
2023-02-23T23:34:16.730Z,22.30
2023-02-23T23:36:48.774Z,21.10
2023-02-23T23:39:17.946Z,14.60
2023-02-23T23:41:48.078Z,18.03
2023-02-23T23:44:24.026Z,18.17
2023-02-23T23:46:51.520Z,18.10
2023-02-23T23:49:21.602Z,16.53
2023-02-23T23:51:51.636Z,18.37
2023-02-23T23:54:21.724Z,21.30
2023-02-23T23:56:50.596Z,20.43
2023-02-23T23:59:21.377Z,21.93
